Time;durP1;ratioP1;P1;durP2;ratioP2;P2;SDS_P1;SDS_P2;PMS_P1;PMS_P2;Temp;Humidity;BMP_temperature;BMP_pressure;BME280_temperature;BME280_humidity;BME280_pressure;Samples;Min_cycle;Max_cycle;Signal;HPM_P1;HPM_P2
2024/01/29 00:02:02;;;;;;;5.40;2.03;;;9.70;63.90;;;;;;5062683;28;20299;-62
2024/01/29 00:04:28;;;;;;;5.85;1.90;;;9.80;63.90;;;;;;5068966;28;20035;-63
2024/01/29 00:06:54;;;;;;;4.63;1.65;;;9.70;64.40;;;;;;5063358;28;20050;-63
2024/01/29 00:09:20;;;;;;;6.65;2.30;;;9.70;64.50;;;;;;5069343;28;20024;-63
2024/01/29 00:11:45;;;;;;;6.72;1.80;;;9.70;64.90;;;;;;5060921;28;20056;-63
2024/01/29 00:14:11;;;;;;;4.93;1.92;;;9.70;64.80;;;;;;5066518;28;20033;-63
2024/01/29 00:16:36;;;;;;;5.05;1.70;;;9.70;64.50;;;;;;5054915;28;20063;-63
2024/01/29 00:19:04;;;;;;;8.02;1.88;;;9.70;65.10;;;;;;5050872;28;20063;-63
2024/01/29 00:21:29;;;;;;;6.20;2.00;;;9.70;66.10;;;;;;5055503;28;20079;-63
2024/01/29 00:23:59;;;;;;;6.55;1.90;;;9.60;65.70;;;;;;5063585;28;20020;-63
2024/01/29 00:26:25;;;;;;;5.80;2.35;;;9.60;65.40;;;;;;5061492;28;20017;-63
2024/01/29 00:28:51;;;;;;;5.72;1.98;;;9.60;63.40;;;;;;5065297;28;20050;-62
2024/01/29 00:31:16;;;;;;;5.90;1.70;;;9.70;65.10;;;;;;5058281;28;20070;-62
2024/01/29 00:33:42;;;;;;;4.97;1.83;;;9.70;65.30;;;;;;5057899;28;20021;-62
2024/01/29 00:36:08;;;;;;;7.18;2.17;;;9.60;65.50;;;;;;5065306;28;20027;-62
2024/01/29 00:38:33;;;;;;;6.78;2.05;;;9.60;66.50;;;;;;5057169;28;20025;-62
2024/01/29 00:40:59;;;;;;;5.22;1.50;;;9.70;65.80;;;;;;5063959;28;20025;-61
2024/01/29 00:43:25;;;;;;;5.97;1.90;;;9.60;66.90;;;;;;5063674;28;20056;-62
2024/01/29 00:45:50;;;;;;;6.00;1.90;;;9.50;68.70;;;;;;5059338;28;20103;-62
2024/01/29 00:48:16;;;;;;;5.93;2.03;;;9.40;66.80;;;;;;5058737;28;20029;-62
2024/01/29 00:50:42;;;;;;;6.30;1.92;;;9.10;70.70;;;;;;5058972;28;20109;-62
2024/01/29 00:53:07;;;;;;;6.45;2.17;;;8.90;70.30;;;;;;5058931;28;20028;-63
2024/01/29 00:55:33;;;;;;;7.78;1.98;;;8.80;71.20;;;;;;5058493;28;20043;-61
2024/01/29 00:57:59;;;;;;;6.70;2.10;;;8.80;72.30;;;;;;5068663;28;20064;-62
2024/01/29 01:00:25;;;;;;;6.50;2.15;;;8.80;74.60;;;;;;5056864;28;20045;-63
2024/01/29 01:02:50;;;;;;;6.38;2.20;;;8.90;72.40;;;;;;5063242;28;20055;-63
2024/01/29 01:05:16;;;;;;;5.97;2.05;;;9.00;72.10;;;;;;5065788;28;20092;-63
2024/01/29 01:07:42;;;;;;;5.68;1.90;;;9.10;72.90;;;;;;5068123;28;20051;-62
2024/01/29 01:10:08;;;;;;;6.22;2.08;;;9.10;72.90;;;;;;5058605;28;20028;-62
2024/01/29 01:12:33;;;;;;;6.15;2.10;;;9.00;72.80;;;;;;5064048;28;20056;-63
2024/01/29 01:14:59;;;;;;;4.72;1.92;;;9.00;74.00;;;;;;5052165;28;20036;-62
2024/01/29 01:17:25;;;;;;;5.20;1.95;;;9.10;73.60;;;;;;5055585;28;20096;-62
2024/01/29 01:19:51;;;;;;;6.78;1.92;;;9.30;72.20;;;;;;5057215;28;20078;-61
2024/01/29 01:22:17;;;;;;;4.88;1.80;;;9.40;70.70;;;;;;5060259;28;20021;-62
2024/01/29 01:24:42;;;;;;;5.53;1.65;;;9.40;73.90;;;;;;5058300;28;20341;-62
2024/01/29 01:27:09;;;;;;;7.25;2.22;;;9.40;73.50;;;;;;5050425;28;20025;-61
2024/01/29 01:29:34;;;;;;;6.80;1.90;;;9.40;73.20;;;;;;5060466;28;20464;-62
2024/01/29 01:32:00;;;;;;;5.28;1.60;;;9.30;74.90;;;;;;5050494;28;20021;-62
2024/01/29 01:34:26;;;;;;;5.38;1.90;;;9.30;73.80;;;;;;5056931;28;20082;-62
2024/01/29 01:36:51;;;;;;;5.20;1.80;;;9.30;73.30;;;;;;5063517;28;20013;-63
2024/01/29 01:39:17;;;;;;;5.28;1.90;;;9.20;76.30;;;;;;5066885;28;20044;-63
2024/01/29 01:41:52;;;;;;;6.25;2.03;;;9.10;75.30;;;;;;5061953;28;20020;-63
2024/01/29 01:44:18;;;;;;;4.70;1.83;;;9.00;76.80;;;;;;5059123;28;20025;-64
2024/01/29 01:46:43;;;;;;;6.60;1.98;;;8.90;77.10;;;;;;5070581;28;20505;-63
2024/01/29 01:49:10;;;;;;;6.60;1.90;;;8.90;78.50;;;;;;5062471;28;20144;-63
2024/01/29 01:51:37;;;;;;;6.03;2.25;;;9.00;78.90;;;;;;5055759;28;20020;-63
2024/01/29 01:54:03;;;;;;;5.78;2.00;;;9.10;77.40;;;;;;5062988;28;20029;-64
2024/01/29 01:56:31;;;;;;;4.45;1.88;;;9.20;75.30;;;;;;5066002;28;20120;-63
2024/01/29 01:58:59;;;;;;;6.57;2.00;;;9.40;75.50;;;;;;5066160;28;20025;-62
2024/01/29 02:01:26;;;;;;;5.63;1.95;;;9.40;76.40;;;;;;5062815;28;20548;-63
2024/01/29 02:03:52;;;;;;;7.55;2.40;;;9.50;75.60;;;;;;5063882;28;20008;-63
2024/01/29 02:06:18;;;;;;;6.47;2.15;;;9.40;76.10;;;;;;5061589;28;20017;-62
2024/01/29 02:08:44;;;;;;;5.68;1.83;;;9.50;76.10;;;;;;5066251;28;20529;-63
2024/01/29 02:11:10;;;;;;;5.53;2.03;;;9.30;75.60;;;;;;5071446;28;20063;-62
2024/01/29 02:13:35;;;;;;;5.70;2.00;;;9.40;77.00;;;;;;5067445;28;20056;-62
2024/01/29 02:16:02;;;;;;;5.68;2.00;;;9.30;77.60;;;;;;5071791;28;20021;-62
2024/01/29 02:18:29;;;;;;;5.97;1.95;;;9.20;77.20;;;;;;5060261;28;20021;-63
2024/01/29 02:20:54;;;;;;;6.93;2.40;;;9.30;78.70;;;;;;5066713;28;20124;-62
2024/01/29 02:23:20;;;;;;;6.30;1.83;;;9.20;78.00;;;;;;5059627;28;20103;-64
2024/01/29 02:25:46;;;;;;;6.40;2.50;;;9.20;81.10;;;;;;5062270;28;20055;-62
2024/01/29 02:28:11;;;;;;;6.07;2.08;;;9.10;79.30;;;;;;5057386;28;20090;-62
2024/01/29 02:30:37;;;;;;;6.35;2.00;;;9.00;81.60;;;;;;5058608;28;20029;-62
2024/01/29 02:33:03;;;;;;;5.50;1.90;;;9.00;79.60;;;;;;5064626;28;20025;-62
2024/01/29 02:35:29;;;;;;;6.13;2.03;;;8.90;82.10;;;;;;5053680;28;20052;-63
2024/01/29 02:37:54;;;;;;;5.85;2.28;;;8.90;81.60;;;;;;5067188;28;20028;-62
2024/01/29 02:40:20;;;;;;;5.15;2.00;;;8.80;81.70;;;;;;5057380;28;20021;-64
2024/01/29 02:42:46;;;;;;;5.55;2.10;;;8.70;83.50;;;;;;5061172;28;20117;-63
2024/01/29 02:45:11;;;;;;;6.93;2.42;;;8.60;85.60;;;;;;5065986;28;20021;-63
2024/01/29 02:47:37;;;;;;;5.53;2.15;;;8.50;86.40;;;;;;5059692;28;20487;-64
2024/01/29 02:50:03;;;;;;;5.85;2.25;;;8.50;86.10;;;;;;5058859;28;20246;-62
2024/01/29 02:52:28;;;;;;;7.07;2.20;;;8.60;86.70;;;;;;5066778;28;20483;-64
2024/01/29 02:54:54;;;;;;;6.68;2.30;;;8.50;86.40;;;;;;5060008;28;20029;-65
2024/01/29 02:57:23;;;;;;;6.93;2.38;;;8.50;88.40;;;;;;5061186;28;20035;-64
2024/01/29 02:59:50;;;;;;;7.47;2.33;;;8.40;87.90;;;;;;5061971;28;20021;-64
2024/01/29 03:02:15;;;;;;;7.97;2.10;;;8.40;89.80;;;;;;5056517;28;20488;-63
2024/01/29 03:04:41;;;;;;;5.63;2.15;;;8.40;90.50;;;;;;5065336;28;20028;-63
2024/01/29 03:07:06;;;;;;;6.47;2.10;;;8.40;90.50;;;;;;5061436;28;20060;-63
2024/01/29 03:09:32;;;;;;;6.80;2.13;;;8.50;90.00;;;;;;5059035;28;20433;-64
2024/01/29 03:11:58;;;;;;;6.18;2.25;;;8.50;88.90;;;;;;5064564;28;20048;-64
2024/01/29 03:14:23;;;;;;;5.65;2.00;;;8.60;89.30;;;;;;5059957;28;20040;-63
2024/01/29 03:16:52;;;;;;;6.20;2.47;;;8.60;89.90;;;;;;5063496;28;20143;-63
2024/01/29 03:19:18;;;;;;;8.02;2.20;;;8.70;91.00;;;;;;5057937;28;20441;-63
2024/01/29 03:21:44;;;;;;;7.18;2.30;;;8.60;90.20;;;;;;5063870;28;20049;-63
2024/01/29 03:24:10;;;;;;;6.70;2.13;;;8.60;90.20;;;;;;5065200;28;20055;-63
2024/01/29 03:26:36;;;;;;;6.88;2.08;;;8.60;90.30;;;;;;5073975;28;20029;-62
2024/01/29 03:29:02;;;;;;;8.13;2.17;;;8.60;90.60;;;;;;5058682;28;20021;-63
2024/01/29 03:31:27;;;;;;;5.78;2.20;;;8.60;91.50;;;;;;5060989;28;20108;-63
2024/01/29 03:33:53;;;;;;;5.35;1.77;;;8.60;90.50;;;;;;5064744;28;20033;-63
2024/01/29 03:36:19;;;;;;;6.57;2.28;;;8.50;91.40;;;;;;5058510;28;20025;-63
2024/01/29 03:38:45;;;;;;;5.38;1.95;;;8.60;90.90;;;;;;5058553;28;20530;-63
2024/01/29 03:41:10;;;;;;;6.80;2.40;;;8.60;91.30;;;;;;5059332;28;20033;-63
2024/01/29 03:43:36;;;;;;;5.55;2.03;;;8.50;91.50;;;;;;5056371;28;20032;-62
2024/01/29 03:46:03;;;;;;;8.00;2.40;;;8.50;91.40;;;;;;5064885;28;20020;-63
2024/01/29 03:48:29;;;;;;;6.45;2.17;;;8.50;92.10;;;;;;5058010;28;20058;-63
2024/01/29 03:50:55;;;;;;;7.10;2.40;;;8.60;92.00;;;;;;5060683;28;20025;-63
2024/01/29 03:53:20;;;;;;;6.25;2.50;;;8.60;91.70;;;;;;5059633;28;20395;-63
2024/01/29 03:55:46;;;;;;;7.28;2.75;;;8.60;91.90;;;;;;5059631;28;20116;-63
2024/01/29 03:58:12;;;;;;;5.60;2.13;;;8.50;92.10;;;;;;5060644;28;20408;-63
2024/01/29 04:00:38;;;;;;;7.07;2.70;;;8.50;92.70;;;;;;5062075;28;20028;-62
2024/01/29 04:03:05;;;;;;;7.35;2.78;;;8.50;93.20;;;;;;5058374;28;20046;-63
2024/01/29 04:05:30;;;;;;;6.32;2.63;;;8.40;93.80;;;;;;5057677;28;20028;-63
2024/01/29 04:07:58;;;;;;;6.07;2.33;;;8.40;93.20;;;;;;5057027;28;20029;-62
2024/01/29 04:10:23;;;;;;;6.85;2.28;;;8.40;93.20;;;;;;5050519;28;20408;-62
2024/01/29 04:12:49;;;;;;;10.52;2.90;;;8.40;93.20;;;;;;5064049;28;20122;-62
2024/01/29 04:15:15;;;;;;;7.03;2.60;;;8.40;94.00;;;;;;5060185;28;20035;-62
2024/01/29 04:17:40;;;;;;;5.30;1.98;;;8.50;93.00;;;;;;5058632;28;20518;-62
2024/01/29 04:20:06;;;;;;;6.00;1.95;;;8.40;93.90;;;;;;5059718;28;20020;-62
2024/01/29 04:22:33;;;;;;;6.45;2.47;;;8.40;93.10;;;;;;5056240;28;20031;-62
2024/01/29 04:25:03;;;;;;;6.60;2.42;;;8.40;93.40;;;;;;5060717;28;20021;-62
2024/01/29 04:27:28;;;;;;;8.07;2.28;;;8.50;93.60;;;;;;5061393;28;20076;-62
2024/01/29 04:29:54;;;;;;;6.30;2.22;;;8.40;93.70;;;;;;5052345;28;20419;-62
2024/01/29 04:32:19;;;;;;;7.32;2.60;;;8.40;93.50;;;;;;5054336;28;20476;-62
2024/01/29 04:34:45;;;;;;;6.22;2.13;;;8.40;93.80;;;;;;5063444;28;20033;-62
2024/01/29 04:37:11;;;;;;;8.68;2.30;;;8.40;94.20;;;;;;5057290;28;20071;-62
2024/01/29 04:39:40;;;;;;;6.38;2.55;;;8.40;94.10;;;;;;5060954;28;20060;-62
2024/01/29 04:42:06;;;;;;;6.18;2.28;;;8.30;94.10;;;;;;5060521;28;20036;-62
2024/01/29 04:44:32;;;;;;;7.65;2.30;;;8.30;94.70;;;;;;5054407;28;20033;-62
2024/01/29 04:46:58;;;;;;;6.75;2.05;;;8.30;95.10;;;;;;5061666;28;20040;-63
2024/01/29 04:49:24;;;;;;;7.03;2.47;;;8.10;95.20;;;;;;5052421;28;20036;-62
2024/01/29 04:51:50;;;;;;;6.53;2.40;;;8.20;95.40;;;;;;5063407;28;20089;-62
2024/01/29 04:54:16;;;;;;;7.13;2.60;;;8.20;95.70;;;;;;5057109;28;20053;-61
2024/01/29 04:56:41;;;;;;;7.38;2.45;;;8.10;96.00;;;;;;5064719;28;20029;-62
2024/01/29 04:59:07;;;;;;;6.35;2.30;;;8.10;96.10;;;;;;5061759;28;20467;-61
2024/01/29 05:01:33;;;;;;;5.80;1.95;;;8.10;96.60;;;;;;5055853;28;20110;-62
2024/01/29 05:03:58;;;;;;;6.38;2.45;;;8.00;96.90;;;;;;5057871;28;20032;-61
2024/01/29 05:06:24;;;;;;;8.65;2.92;;;8.00;96.50;;;;;;5054244;28;20066;-61
2024/01/29 05:08:50;;;;;;;6.85;2.40;;;8.00;97.50;;;;;;5056691;28;20105;-62
2024/01/29 05:11:15;;;;;;;7.72;2.60;;;7.90;97.30;;;;;;5058883;28;20041;-63
2024/01/29 05:13:43;;;;;;;7.78;2.80;;;7.90;97.40;;;;;;5063328;28;20079;-62
2024/01/29 05:16:11;;;;;;;7.07;2.60;;;7.90;98.70;;;;;;5050494;28;20376;-62
2024/01/29 05:18:37;;;;;;;7.43;2.60;;;7.80;97.70;;;;;;5063873;28;20055;-64
2024/01/29 05:21:06;;;;;;;8.27;2.88;;;7.80;97.80;;;;;;5067855;28;20032;-64
2024/01/29 05:23:32;;;;;;;7.95;2.70;;;7.80;98.50;;;;;;5063203;28;20488;-64
2024/01/29 05:25:57;;;;;;;9.40;2.90;;;7.80;98.50;;;;;;5064792;28;20024;-63
2024/01/29 05:28:23;;;;;;;6.00;2.25;;;7.80;98.50;;;;;;5068584;28;20103;-63
2024/01/29 05:30:51;;;;;;;7.68;2.88;;;7.80;98.90;;;;;;5069516;28;20025;-63
2024/01/29 05:33:17;;;;;;;7.07;2.55;;;7.70;98.60;;;;;;5070529;28;20036;-63
2024/01/29 05:35:42;;;;;;;7.00;2.55;;;7.70;98.80;;;;;;5071049;28;20082;-63
2024/01/29 05:38:08;;;;;;;7.82;3.03;;;7.70;99.10;;;;;;5068955;28;20048;-63
2024/01/29 05:40:34;;;;;;;6.60;2.65;;;7.80;98.40;;;;;;5069111;28;20555;-64
2024/01/29 05:42:59;;;;;;;7.97;2.55;;;7.90;98.90;;;;;;5065420;28;20399;-64
2024/01/29 05:45:25;;;;;;;7.18;2.90;;;7.70;99.50;;;;;;5073681;28;20111;-64
2024/01/29 05:47:50;;;;;;;8.32;3.00;;;7.70;99.30;;;;;;5072426;28;20031;-63
2024/01/29 05:50:16;;;;;;;8.65;2.65;;;7.60;99.20;;;;;;5068578;28;20034;-63
2024/01/29 05:52:42;;;;;;;8.32;3.15;;;7.70;99.00;;;;;;5068870;28;20024;-64
2024/01/29 05:55:08;;;;;;;8.25;2.78;;;7.70;99.40;;;;;;5072242;28;20032;-63
2024/01/29 05:57:34;;;;;;;7.95;2.75;;;7.70;98.80;;;;;;5065993;28;20091;-63
2024/01/29 05:59:59;;;;;;;7.57;3.03;;;7.60;99.50;;;;;;5063563;28;20817;-64
2024/01/29 06:02:25;;;;;;;8.07;2.90;;;7.60;99.10;;;;;;5074044;28;20488;-63
2024/01/29 06:04:51;;;;;;;7.20;2.47;;;7.50;99.90;;;;;;5069864;28;20033;-63
2024/01/29 06:07:16;;;;;;;9.60;2.65;;;7.50;99.90;;;;;;5066206;28;20040;-63
2024/01/29 06:09:42;;;;;;;8.10;2.50;;;7.50;99.90;;;;;;5058352;28;20040;-64
2024/01/29 06:12:08;;;;;;;8.52;2.78;;;7.50;99.90;;;;;;5054198;28;20049;-63
2024/01/29 06:14:33;;;;;;;8.27;3.10;;;7.50;99.90;;;;;;5061121;28;20495;-63
2024/01/29 06:16:59;;;;;;;6.25;2.30;;;7.40;99.90;;;;;;5066060;28;20072;-63
2024/01/29 06:19:25;;;;;;;9.10;3.00;;;7.40;99.90;;;;;;5061043;28;20100;-63
2024/01/29 06:21:51;;;;;;;7.07;2.90;;;7.40;99.90;;;;;;5066043;28;20029;-63
2024/01/29 06:24:17;;;;;;;6.57;2.53;;;7.40;99.90;;;;;;5067237;28;20048;-63
2024/01/29 06:26:42;;;;;;;6.78;2.97;;;7.40;99.90;;;;;;5062661;28;20108;-61
2024/01/29 06:29:08;;;;;;;8.13;2.80;;;7.30;99.90;;;;;;5058295;28;20052;-62
2024/01/29 06:31:41;;;;;;;7.90;2.97;;;7.40;99.90;;;;;;5053159;28;20049;-64
2024/01/29 06:34:07;;;;;;;8.63;2.95;;;7.30;99.90;;;;;;5071127;28;20476;-62
2024/01/29 06:36:33;;;;;;;7.40;2.95;;;7.40;99.90;;;;;;5058264;28;20086;-62
2024/01/29 06:38:58;;;;;;;6.90;2.85;;;7.40;99.90;;;;;;5062688;28;20032;-62
2024/01/29 06:41:25;;;;;;;7.70;2.80;;;7.40;99.90;;;;;;5056755;28;20376;-63
2024/01/29 06:43:52;;;;;;;6.72;2.60;;;7.50;99.90;;;;;;5068524;28;20043;-63
2024/01/29 06:46:19;;;;;;;7.90;2.83;;;7.50;99.90;;;;;;5068206;28;20021;-63
2024/01/29 06:48:45;;;;;;;8.45;3.30;;;7.50;99.90;;;;;;5057068;28;20056;-63
2024/01/29 06:51:11;;;;;;;9.57;2.97;;;7.40;99.90;;;;;;5064091;28;20121;-63
2024/01/29 06:53:37;;;;;;;7.28;2.95;;;7.50;99.90;;;;;;5054112;28;20028;-63
2024/01/29 06:56:04;;;;;;;7.70;2.85;;;7.50;99.90;;;;;;5060587;28;20020;-63
2024/01/29 06:58:37;;;;;;;7.97;2.78;;;7.50;99.90;;;;;;5063385;28;20029;-62
2024/01/29 07:01:06;;;;;;;7.32;2.65;;;7.50;99.90;;;;;;5060160;28;20025;-63
2024/01/29 07:03:32;;;;;;;7.60;2.97;;;7.50;99.90;;;;;;5063786;28;20032;-64
2024/01/29 07:05:58;;;;;;;8.55;3.13;;;7.50;99.90;;;;;;5059225;28;20036;-63
2024/01/29 07:08:24;;;;;;;7.25;2.80;;;7.50;99.90;;;;;;5059079;28;20029;-63
2024/01/29 07:10:50;;;;;;;6.75;2.92;;;7.40;99.90;;;;;;5057705;28;20037;-63
2024/01/29 07:13:15;;;;;;;8.68;3.28;;;7.40;99.90;;;;;;5065202;28;20086;-63
2024/01/29 07:15:42;;;;;;;8.45;2.90;;;7.30;99.90;;;;;;5058144;28;20025;-62
2024/01/29 07:18:08;;;;;;;8.40;3.35;;;7.30;99.90;;;;;;5060425;28;20044;-62
2024/01/29 07:20:39;;;;;;;9.27;3.22;;;7.30;99.90;;;;;;5057021;28;20029;-61
2024/01/29 07:23:05;;;;;;;7.40;2.65;;;7.30;99.90;;;;;;5062073;28;20552;-62
2024/01/29 07:25:31;;;;;;;6.78;2.92;;;7.20;99.90;;;;;;5051176;28;20411;-62
2024/01/29 07:28:04;;;;;;;11.27;3.38;;;7.20;99.90;;;;;;5053275;28;20045;-62
2024/01/29 07:30:31;;;;;;;8.95;3.70;;;7.20;99.90;;;;;;5057183;28;20020;-63
2024/01/29 07:32:57;;;;;;;11.13;3.30;;;7.10;99.90;;;;;;5055026;28;20024;-64
2024/01/29 07:35:23;;;;;;;9.68;3.25;;;7.10;99.90;;;;;;5055161;28;20033;-63
2024/01/29 07:37:49;;;;;;;8.27;3.17;;;7.10;99.90;;;;;;5057942;28;20086;-63
2024/01/29 07:40:15;;;;;;;8.95;3.28;;;7.10;99.90;;;;;;5061226;28;20024;-63
2024/01/29 07:42:40;;;;;;;8.75;3.40;;;7.10;99.90;;;;;;5055079;28;20033;-63
2024/01/29 07:45:06;;;;;;;7.53;2.92;;;7.10;99.90;;;;;;5064014;28;20557;-63
2024/01/29 07:47:32;;;;;;;8.98;3.55;;;7.10;99.90;;;;;;5057887;28;20052;-62
2024/01/29 07:49:57;;;;;;;10.65;3.35;;;7.10;99.90;;;;;;5064478;28;20081;-61
2024/01/29 07:52:23;;;;;;;8.55;3.10;;;7.20;99.90;;;;;;5055650;28;20117;-62
2024/01/29 07:54:49;;;;;;;9.85;3.60;;;7.20;99.90;;;;;;5058160;28;20516;-63
2024/01/29 07:57:14;;;;;;;11.52;3.50;;;7.30;99.90;;;;;;5061765;28;20078;-62
2024/01/29 07:59:40;;;;;;;11.02;3.55;;;7.30;99.90;;;;;;5062857;28;20052;-64
2024/01/29 08:02:06;;;;;;;9.60;3.70;;;7.20;99.90;;;;;;5075994;28;20024;-63
2024/01/29 08:04:32;;;;;;;9.05;3.53;;;7.20;99.90;;;;;;5060246;28;20100;-62
2024/01/29 08:06:58;;;;;;;7.45;2.95;;;7.20;99.90;;;;;;5080940;28;20625;-63
2024/01/29 08:09:28;;;;;;;8.20;3.00;;;7.20;99.90;;;;;;5077752;28;20024;-64
2024/01/29 08:11:55;;;;;;;8.93;3.08;;;7.30;99.90;;;;;;5078091;28;20424;-63
2024/01/29 08:14:21;;;;;;;7.53;3.10;;;7.30;99.90;;;;;;5074306;28;20020;-62
2024/01/29 08:16:47;;;;;;;9.38;3.78;;;7.20;99.90;;;;;;5072688;28;20136;-62
2024/01/29 08:19:19;;;;;;;10.50;3.50;;;7.20;99.90;;;;;;5073232;28;20082;-64
2024/01/29 08:21:45;;;;;;;11.38;4.18;;;7.10;99.90;;;;;;5069767;28;20024;-62
2024/01/29 08:24:10;;;;;;;10.77;3.28;;;7.10;99.90;;;;;;5065909;28;20028;-62
2024/01/29 08:26:36;;;;;;;9.27;3.90;;;7.20;99.90;;;;;;5068955;28;20800;-62
2024/01/29 08:29:02;;;;;;;8.48;3.70;;;7.20;99.90;;;;;;5067590;28;20059;-62
2024/01/29 08:31:30;;;;;;;9.65;3.40;;;7.30;99.90;;;;;;5068895;28;20357;-62
2024/01/29 08:33:56;;;;;;;10.88;3.75;;;7.30;99.90;;;;;;5069527;28;20040;-62
2024/01/29 08:36:22;;;;;;;8.07;3.28;;;7.40;99.90;;;;;;5065831;28;20043;-62
2024/01/29 08:38:48;;;;;;;8.52;3.50;;;7.40;99.90;;;;;;5061940;28;20024;-62
2024/01/29 08:41:14;;;;;;;7.78;3.35;;;7.50;99.90;;;;;;5069739;28;20402;-61
2024/01/29 08:43:40;;;;;;;9.93;3.25;;;7.50;99.90;;;;;;5068917;28;20054;-61
2024/01/29 08:46:06;;;;;;;9.93;3.70;;;7.60;99.90;;;;;;5068915;28;20048;-62
2024/01/29 08:48:32;;;;;;;10.15;3.65;;;7.60;99.90;;;;;;5065203;28;20044;-62
2024/01/29 08:50:58;;;;;;;10.45;3.15;;;7.70;99.90;;;;;;5060037;28;20074;-62
2024/01/29 08:53:25;;;;;;;10.48;3.40;;;7.80;99.90;;;;;;5060609;28;20032;-63
2024/01/29 08:55:50;;;;;;;8.77;3.72;;;7.90;99.90;;;;;;5068793;28;20028;-62
2024/01/29 08:58:16;;;;;;;8.18;3.42;;;8.10;99.90;;;;;;5059610;28;20111;-62
2024/01/29 09:00:42;;;;;;;10.02;3.50;;;8.40;99.90;;;;;;5057113;28;20033;-62
2024/01/29 09:03:09;;;;;;;13.45;4.25;;;8.70;99.90;;;;;;5059122;28;20025;-62
2024/01/29 09:05:35;;;;;;;9.38;3.85;;;9.10;99.90;;;;;;5053599;28;20013;-62
2024/01/29 09:08:01;;;;;;;8.55;3.60;;;9.40;99.30;;;;;;5065167;28;20380;-62
2024/01/29 09:10:26;;;;;;;10.63;3.75;;;9.70;98.40;;;;;;5053288;28;20043;-62
2024/01/29 09:12:52;;;;;;;9.10;3.53;;;10.00;97.80;;;;;;5064789;28;20059;-62
2024/01/29 09:15:18;;;;;;;9.35;3.70;;;10.30;96.90;;;;;;5060102;28;20107;-61
2024/01/29 09:17:43;;;;;;;12.45;3.90;;;10.60;96.20;;;;;;5060736;28;20041;-61
2024/01/29 09:20:10;;;;;;;9.23;3.75;;;10.90;95.40;;;;;;5054683;28;20029;-63
2024/01/29 09:22:35;;;;;;;11.68;4.00;;;11.20;94.30;;;;;;5062439;28;20468;-62
2024/01/29 09:25:01;;;;;;;11.05;4.20;;;11.50;93.70;;;;;;5058982;28;20115;-63
2024/01/29 09:27:29;;;;;;;9.52;3.83;;;11.60;92.80;;;;;;5058926;28;20488;-62
2024/01/29 09:29:54;;;;;;;9.00;3.20;;;11.70;92.90;;;;;;5058097;28;20032;-62
2024/01/29 09:32:20;;;;;;;7.72;3.35;;;11.60;92.60;;;;;;5057105;28;20479;-63
2024/01/29 09:34:46;;;;;;;10.82;3.25;;;11.70;92.70;;;;;;5061239;28;20507;-62
2024/01/29 09:37:11;;;;;;;10.10;4.00;;;11.50;93.60;;;;;;5059851;28;20033;-62
2024/01/29 09:39:37;;;;;;;9.50;3.80;;;11.40;93.90;;;;;;5060732;28;20028;-62
2024/01/29 09:42:04;;;;;;;9.55;4.40;;;11.40;93.80;;;;;;5059061;28;20024;-62
2024/01/29 09:44:39;;;;;;;10.05;3.80;;;11.30;93.90;;;;;;5062150;28;20646;-62
2024/01/29 09:47:06;;;;;;;9.15;3.20;;;11.40;94.20;;;;;;5058813;28;20025;-63
2024/01/29 09:49:36;;;;;;;11.55;4.15;;;11.60;94.30;;;;;;5052173;28;20128;-62
2024/01/29 09:52:09;;;;;;;9.50;3.58;;;12.20;92.50;;;;;;5052369;28;20037;-63
2024/01/29 09:54:36;;;;;;;8.75;3.45;;;12.80;90.00;;;;;;5058925;28;20109;-63
2024/01/29 09:57:02;;;;;;;8.80;3.55;;;13.30;88.30;;;;;;5061918;28;20504;-63
2024/01/29 09:59:27;;;;;;;10.00;3.55;;;13.70;85.20;;;;;;5058413;28;20051;-63
2024/01/29 10:01:53;;;;;;;9.15;2.97;;;14.20;82.30;;;;;;5061590;28;20035;-64
2024/01/29 10:04:21;;;;;;;7.95;3.08;;;14.60;75.60;;;;;;5062452;28;20527;-64
2024/01/29 10:06:47;;;;;;;8.18;3.28;;;14.50;77.40;;;;;;5066213;28;20024;-63
2024/01/29 10:09:14;;;;;;;8.00;3.08;;;14.40;77.90;;;;;;5060382;28;20407;-63
2024/01/29 10:11:42;;;;;;;8.80;3.50;;;14.60;76.10;;;;;;5062077;28;20060;-64
2024/01/29 10:14:08;;;;;;;8.52;3.10;;;14.60;74.90;;;;;;5066985;28;20036;-64
2024/01/29 10:16:33;;;;;;;7.82;3.20;;;14.60;76.00;;;;;;5062090;28;20051;-65
2024/01/29 10:19:00;;;;;;;10.60;2.97;;;14.60;75.20;;;;;;5068485;28;20017;-64
2024/01/29 10:21:27;;;;;;;8.95;3.80;;;14.60;74.20;;;;;;5065764;28;20032;-65
2024/01/29 10:23:56;;;;;;;8.65;3.55;;;14.50;76.70;;;;;;5063490;28;20051;-64
2024/01/29 10:26:22;;;;;;;9.20;3.10;;;14.50;76.90;;;;;;5059118;28;20036;-65
2024/01/29 10:29:00;;;;;;;8.95;3.22;;;14.50;77.80;;;;;;5060155;28;20036;-65
2024/01/29 10:31:26;;;;;;;8.73;3.35;;;14.60;76.40;;;;;;5061935;28;20025;-64
2024/01/29 10:33:51;;;;;;;8.38;3.15;;;14.70;76.20;;;;;;5060081;28;20678;-64
2024/01/29 10:36:17;;;;;;;7.85;3.13;;;14.70;76.80;;;;;;5060175;28;20021;-64
2024/01/29 10:38:46;;;;;;;8.80;3.17;;;15.00;73.90;;;;;;5061481;28;20147;-63
2024/01/29 10:41:17;;;;;;;7.50;2.92;;;15.40;73.80;;;;;;5061401;28;20025;-64
2024/01/29 10:43:52;;;;;;;10.52;3.00;;;16.00;70.40;;;;;;5065585;28;20029;-65
2024/01/29 10:46:20;;;;;;;7.88;3.10;;;16.30;67.60;;;;;;5063368;28;20032;-66
2024/01/29 10:48:46;;;;;;;9.07;3.42;;;16.50;67.60;;;;;;5064374;28;20032;-66
2024/01/29 10:51:16;;;;;;;7.72;2.97;;;17.00;66.20;;;;;;5060382;28;20533;-67
2024/01/29 10:53:43;;;;;;;7.47;3.03;;;17.40;66.20;;;;;;5061518;28;20033;-65
2024/01/29 10:56:09;;;;;;;9.75;3.10;;;18.00;61.40;;;;;;5070154;28;20025;-65
2024/01/29 10:58:36;;;;;;;7.47;3.13;;;17.60;61.80;;;;;;5055299;28;20029;-64
2024/01/29 11:01:03;;;;;;;8.68;3.28;;;17.30;63.30;;;;;;5061701;28;20091;-64
2024/01/29 11:03:30;;;;;;;9.82;3.28;;;17.40;63.80;;;;;;5059223;28;20088;-65
2024/01/29 11:06:33;;;;;;;7.50;2.70;;;17.60;63.30;;;;;;5062095;28;20021;-65
2024/01/29 11:09:08;;;;;;;8.25;3.00;;;18.00;62.40;;;;;;5004581;28;20065;-65
2024/01/29 11:11:35;;;;;;;7.70;2.90;;;18.30;61.00;;;;;;5053255;28;20102;-65
2024/01/29 11:14:01;;;;;;;7.70;2.97;;;18.60;60.20;;;;;;5065580;28;20039;-65
2024/01/29 11:16:27;;;;;;;7.97;2.72;;;18.60;60.40;;;;;;5064614;28;20375;-64
2024/01/29 11:18:54;;;;;;;7.95;2.92;;;18.50;60.40;;;;;;5061882;28;20025;-65
2024/01/29 11:21:25;;;;;;;8.50;3.30;;;18.10;61.10;;;;;;5057950;28;20031;-66
2024/01/29 11:23:55;;;;;;;7.53;3.00;;;17.90;63.40;;;;;;5073740;28;20397;-65
2024/01/29 11:26:23;;;;;;;8.60;3.03;;;18.00;62.30;;;;;;5061358;28;20077;-65
2024/01/29 11:28:56;;;;;;;7.15;2.92;;;18.40;62.50;;;;;;5065190;28;20050;-64
2024/01/29 11:31:21;;;;;;;10.90;2.92;;;19.10;59.80;;;;;;5067903;28;20036;-65
2024/01/29 11:33:47;;;;;;;10.65;3.20;;;19.30;59.80;;;;;;5059623;28;20025;-64
2024/01/29 11:36:13;;;;;;;8.50;3.08;;;19.30;58.60;;;;;;5066185;28;20043;-64
2024/01/29 11:38:39;;;;;;;8.13;2.92;;;18.80;60.30;;;;;;5056538;28;20025;-64
2024/01/29 11:41:05;;;;;;;9.00;3.05;;;18.70;60.70;;;;;;5065632;28;20016;-63
2024/01/29 11:43:34;;;;;;;6.65;2.85;;;18.60;61.30;;;;;;5065233;28;20025;-63
2024/01/29 11:46:00;;;;;;;6.50;2.20;;;18.50;62.20;;;;;;5067798;28;20028;-63
2024/01/29 11:48:25;;;;;;;10.15;3.20;;;18.50;62.00;;;;;;5059253;28;20036;-64
2024/01/29 11:50:57;;;;;;;7.97;3.05;;;18.50;62.60;;;;;;5067599;28;20065;-63
2024/01/29 11:53:25;;;;;;;7.95;2.47;;;18.40;62.80;;;;;;5061249;28;20025;-63
2024/01/29 11:55:52;;;;;;;9.38;3.10;;;17.80;64.30;;;;;;5064360;28;20087;-64
2024/01/29 11:58:19;;;;;;;7.75;3.40;;;17.50;66.30;;;;;;5064160;28;20086;-64
2024/01/29 12:00:46;;;;;;;10.48;3.67;;;17.10;68.10;;;;;;5060034;28;20021;-64
2024/01/29 12:03:22;;;;;;;10.02;3.33;;;17.00;68.40;;;;;;5066941;28;20054;-64
2024/01/29 12:05:49;;;;;;;7.78;3.13;;;17.20;68.30;;;;;;5067017;28;20021;-63
2024/01/29 12:08:16;;;;;;;7.63;3.38;;;17.20;69.40;;;;;;5058702;28;20035;-64
2024/01/29 12:10:43;;;;;;;8.20;3.33;;;17.90;67.50;;;;;;5060312;28;20025;-63
2024/01/29 12:13:19;;;;;;;9.13;3.17;;;18.10;65.50;;;;;;5059526;28;20052;-64
2024/01/29 12:15:46;;;;;;;8.13;3.35;;;18.70;64.10;;;;;;5060962;28;20036;-64
2024/01/29 12:18:24;;;;;;;7.20;2.90;;;19.00;63.00;;;;;;5059859;28;20035;-64
2024/01/29 12:20:51;;;;;;;8.98;3.40;;;19.10;61.20;;;;;;5064392;28;20013;-65
2024/01/29 12:23:17;;;;;;;8.63;3.42;;;18.60;63.60;;;;;;5059589;28;20020;-66
2024/01/29 12:25:55;;;;;;;8.38;3.20;;;18.90;63.60;;;;;;5056485;28;20453;-65
2024/01/29 12:28:23;;;;;;;9.05;3.20;;;18.80;63.30;;;;;;5057645;28;20020;-64
2024/01/29 12:30:55;;;;;;;8.32;3.13;;;18.40;65.50;;;;;;5067333;28;20024;-65
2024/01/29 12:33:27;;;;;;;9.18;3.40;;;18.40;66.00;;;;;;5058832;28;20041;-65
2024/01/29 12:35:53;;;;;;;9.20;3.33;;;18.50;64.60;;;;;;5064985;28;20017;-65
2024/01/29 12:38:22;;;;;;;8.50;3.40;;;18.70;63.90;;;;;;5063320;28;20025;-65
2024/01/29 12:40:48;;;;;;;8.13;3.60;;;18.60;64.30;;;;;;5057915;28;20028;-64
2024/01/29 12:43:14;;;;;;;7.72;3.17;;;18.40;64.00;;;;;;5065646;28;20040;-64
2024/01/29 12:45:41;;;;;;;9.88;3.45;;;18.00;66.10;;;;;;5060455;28;20107;-64
2024/01/29 12:48:10;;;;;;;7.88;3.42;;;17.60;69.70;;;;;;5062090;28;20020;-64
2024/01/29 12:50:37;;;;;;;8.07;3.45;;;17.30;69.00;;;;;;5059753;28;20021;-64